Warning: Javascript must be enabled to use all the features on this page!


Page Loading - Please Wait...

Click to hideNews Bulletins

Peak Streamflow for New Jersey

Click to hide state-specific text

ALL DATA ARE AT LOCAL TIME


USGS 01399830 North Branch Raritan River at North Branch NJ

Somerset County, New Jersey
Hydrologic Unit Code 02030105
Latitude  40°36'00", Longitude  74°40'26" NAD83
Drainage area 174  square miles
Gage datum 56.94 feet above NGVD29
Output formats
Table
Graph
Tab-separated file
peakfq (watstore) format
Reselect output format
Water
Year
Date Gage
Height
(feet)
Stream-
flow
(cfs)
1938 1938-09-21 15.40  
1955 1955-08-19 13.30  
1971 1971-08-28 18.70  
1978 1978-01-26 12.88 7,180
1979 1979-01-25 16.62 14,100
1980 1980-03-21 13.80 9,360
1981 1981-05-12 13.85 9,450
1982 1982-02-03 13.19 8,380
1983 1983-04-16 14.44 10,400
1984 1984-07-07 19.31 27,300
1985 1985-09-27 12.06 7,150
1986 1986-01-26 11.97 7,010
1987 1986-12-03 12.47 7,800
1988 1988-07-27 12.04 7,120
1989 1989-09-20 12.15 7,300
1990 1989-10-20 12.84 8,490
1991 1990-12-04 11.39 6,200
1992 1992-06-06 11.96 6,990
1993 1992-12-11 12.43 7,770
1994 1994-01-29 13.15 9,050
1997 1996-10-19 18.60 24,600
1998 1998-04-10 11.14 6,000
1999 1999-09-16 21.53 27,800
2000 2000-08-03 11.40 6,000
2001 2000-12-17 9.76 4,230
2002 2002-05-14 12.15 6,900
2003 2003-06-04 10.14 4,600
2004 2004-07-23 15.15 11,600
2005 2005-04-03 13.50 8,830
2006 2005-10-09 14.02 9,630
2007 2007-04-16 15.43 12,100
2008 2008-03-08 14.66 10,700
2009 2008-12-12 13.38 8,700
2010 2010-03-14 16.46 14,200
2011 2011-08-28 20.54 25,400
2012 2011-12-08 12.59 7,860
2013 2013-08-22 13.53 9,370
2014 2014-05-01 16.10 14,200
2015 2015-01-18 10.88 5,470
2016 2016-02-04 11.51 6,300
2017 2017-04-06 10.33 4,800
2018 2018-04-16 12.39 7,560
2019 2018-11-25 13.00 8,500